sensor_id;sensor_type;location;lat;lon;timestamp;pressure;altitude;pressure_sealevel;temperature;humidity
36192;BME280;22233;42.708;23.360;2022-09-28T00:01:12;94421.53;;;16.07;76.23
36192;BME280;22233;42.708;23.360;2022-09-28T00:03:38;94434.78;;;16.02;76.18
36192;BME280;22233;42.708;23.360;2022-09-28T00:06:06;94428.75;;;15.62;77.78
36192;BME280;22233;42.708;23.360;2022-09-28T00:08:32;94417.53;;;15.44;79.48
36192;BME280;22233;42.708;23.360;2022-09-28T00:10:57;94418.91;;;15.57;78.33
36192;BME280;22233;42.708;23.360;2022-09-28T00:13:23;94424.31;;;15.54;78.89
36192;BME280;22233;42.708;23.360;2022-09-28T00:16:09;94426.63;;;15.52;78.86
36192;BME280;22233;42.708;23.360;2022-09-28T00:18:35;94425.69;;;15.41;79.54
36192;BME280;22233;42.708;23.360;2022-09-28T00:21:16;94421.03;;;15.18;80.25
36192;BME280;22233;42.708;23.360;2022-09-28T00:23:43;94424.75;;;15.29;78.92
36192;BME280;22233;42.708;23.360;2022-09-28T00:26:28;94409.09;;;15.30;78.45
36192;BME280;22233;42.708;23.360;2022-09-28T00:28:56;94428.59;;;15.51;77.43
36192;BME280;22233;42.708;23.360;2022-09-28T00:31:24;94419.06;;;15.42;77.60
36192;BME280;22233;42.708;23.360;2022-09-28T00:33:53;94404.97;;;15.40;76.82
36192;BME280;22233;42.708;23.360;2022-09-28T00:36:21;94411.66;;;15.19;77.62
36192;BME280;22233;42.708;23.360;2022-09-28T00:38:46;94406.69;;;15.02;77.42
36192;BME280;22233;42.708;23.360;2022-09-28T00:41:12;94417.44;;;14.68;78.95
36192;BME280;22233;42.708;23.360;2022-09-28T00:43:38;94410.34;;;14.63;79.71
36192;BME280;22233;42.708;23.360;2022-09-28T00:48:56;94424.66;;;14.56;79.95
36192;BME280;22233;42.708;23.360;2022-09-28T00:51:24;94418.19;;;14.45;80.38
36192;BME280;22233;42.708;23.360;2022-09-28T00:53:50;94421.78;;;14.30;80.81
36192;BME280;22233;42.708;23.360;2022-09-28T00:56:19;94430.22;;;14.21;81.21
36192;BME280;22233;42.708;23.360;2022-09-28T00:58:50;94428.91;;;14.15;80.59
36192;BME280;22233;42.708;23.360;2022-09-28T01:01:16;94415.22;;;13.56;83.50
36192;BME280;22233;42.708;23.360;2022-09-28T01:03:42;94418.84;;;13.29;84.17
36192;BME280;22233;42.708;23.360;2022-09-28T01:06:16;94422.88;;;13.51;84.44
36192;BME280;22233;42.708;23.360;2022-09-28T01:08:44;94422.63;;;13.75;82.65
36192;BME280;22233;42.708;23.360;2022-09-28T01:11:10;94421.63;;;13.84;82.64
36192;BME280;22233;42.708;23.360;2022-09-28T01:13:36;94420.72;;;13.60;83.22
36192;BME280;22233;42.708;23.360;2022-09-28T01:16:18;94416.31;;;13.71;82.31
36192;BME280;22233;42.708;23.360;2022-09-28T01:21:28;94420.69;;;13.41;82.89
36192;BME280;22233;42.708;23.360;2022-09-28T01:26:56;94410.44;;;13.02;84.21
36192;BME280;22233;42.708;23.360;2022-09-28T01:29:33;94431.41;;;12.86;85.90
36192;BME280;22233;42.708;23.360;2022-09-28T01:32:10;94427.47;;;12.83;84.48
36192;BME280;22233;42.708;23.360;2022-09-28T01:37:57;94417.25;;;13.12;85.36
36192;BME280;22233;42.708;23.360;2022-09-28T01:40:26;94414.88;;;13.26;83.87
36192;BME280;22233;42.708;23.360;2022-09-28T01:43:01;94414.03;;;13.22;83.39
36192;BME280;22233;42.708;23.360;2022-09-28T01:45:41;94438.16;;;13.55;83.49
36192;BME280;22233;42.708;23.360;2022-09-28T01:48:09;94440.59;;;13.76;82.52
36192;BME280;22233;42.708;23.360;2022-09-28T01:50:38;94436.81;;;14.01;81.65
36192;BME280;22233;42.708;23.360;2022-09-28T01:53:22;94439.16;;;14.02;82.40
36192;BME280;22233;42.708;23.360;2022-09-28T01:55:51;94440.69;;;14.19;81.12
36192;BME280;22233;42.708;23.360;2022-09-28T01:58:34;94413.50;;;14.26;80.94
36192;BME280;22233;42.708;23.360;2022-09-28T02:01:13;94451.47;;;14.12;80.85
36192;BME280;22233;42.708;23.360;2022-09-28T02:03:48;94428.91;;;14.15;81.35
36192;BME280;22233;42.708;23.360;2022-09-28T02:06:20;94434.72;;;14.13;81.27
36192;BME280;22233;42.708;23.360;2022-09-28T02:08:53;94454.50;;;14.07;81.98
36192;BME280;22233;42.708;23.360;2022-09-28T02:11:21;94444.63;;;13.83;82.00
36192;BME280;22233;42.708;23.360;2022-09-28T02:13:52;94448.38;;;14.13;81.33
36192;BME280;22233;42.708;23.360;2022-09-28T02:16:32;94455.13;;;14.00;81.95
36192;BME280;22233;42.708;23.360;2022-09-28T02:18:59;94455.94;;;14.20;81.63
36192;BME280;22233;42.708;23.360;2022-09-28T02:21:38;94443.34;;;14.15;81.76
36192;BME280;22233;42.708;23.360;2022-09-28T02:24:10;94443.94;;;14.25;81.42
36192;BME280;22233;42.708;23.360;2022-09-28T02:26:41;94446.66;;;14.44;80.88
36192;BME280;22233;42.708;23.360;2022-09-28T02:29:08;94441.25;;;14.48;80.95
36192;BME280;22233;42.708;23.360;2022-09-28T02:31:34;94434.56;;;14.45;80.44
36192;BME280;22233;42.708;23.360;2022-09-28T02:34:00;94445.78;;;14.40;80.73
36192;BME280;22233;42.708;23.360;2022-09-28T02:36:26;94440.31;;;14.40;80.73
36192;BME280;22233;42.708;23.360;2022-09-28T02:38:53;94431.50;;;14.08;81.25
36192;BME280;22233;42.708;23.360;2022-09-28T02:41:26;94446.59;;;14.21;80.96
36192;BME280;22233;42.708;23.360;2022-09-28T02:46:54;94442.94;;;14.33;81.03
36192;BME280;22233;42.708;23.360;2022-09-28T02:49:42;94434.59;;;14.26;81.01
36192;BME280;22233;42.708;23.360;2022-09-28T03:03:33;94462.19;;;14.21;80.63
36192;BME280;22233;42.708;23.360;2022-09-28T03:06:32;94470.28;;;13.97;81.38
36192;BME280;22233;42.708;23.360;2022-09-28T03:09:13;94469.06;;;13.95;80.71
36192;BME280;22233;42.708;23.360;2022-09-28T03:11:46;94460.75;;;14.07;80.59
36192;BME280;22233;42.708;23.360;2022-09-28T03:14:14;94478.34;;;14.10;80.36
36192;BME280;22233;42.708;23.360;2022-09-28T03:16:43;94473.53;;;14.03;80.51
36192;BME280;22233;42.708;23.360;2022-09-28T03:19:13;94464.63;;;14.26;79.54
36192;BME280;22233;42.708;23.360;2022-09-28T03:21:40;94485.66;;;14.06;79.89
36192;BME280;22233;42.708;23.360;2022-09-28T03:24:06;94485.97;;;14.01;80.24
36192;BME280;22233;42.708;23.360;2022-09-28T03:26:32;94490.69;;;14.04;79.85
36192;BME280;22233;42.708;23.360;2022-09-28T03:28:57;94491.19;;;13.90;80.04
36192;BME280;22233;42.708;23.360;2022-09-28T03:31:22;94472.44;;;14.08;79.25
36192;BME280;22233;42.708;23.360;2022-09-28T03:33:49;94468.19;;;14.10;78.64
36192;BME280;22233;42.708;23.360;2022-09-28T03:36:15;94488.56;;;14.13;79.07
36192;BME280;22233;42.708;23.360;2022-09-28T03:38:40;94488.84;;;14.08;79.55
36192;BME280;22233;42.708;23.360;2022-09-28T03:41:06;94482.16;;;14.05;78.97
36192;BME280;22233;42.708;23.360;2022-09-28T03:43:32;94493.47;;;13.88;80.92
36192;BME280;22233;42.708;23.360;2022-09-28T03:45:58;94490.47;;;14.12;79.72
36192;BME280;22233;42.708;23.360;2022-09-28T03:48:26;94482.28;;;14.12;80.34
36192;BME280;22233;42.708;23.360;2022-09-28T03:50:56;94489.47;;;14.01;80.12
36192;BME280;22233;42.708;23.360;2022-09-28T03:53:23;94489.22;;;14.26;79.81
36192;BME280;22233;42.708;23.360;2022-09-28T03:55:48;94481.59;;;14.15;79.66
36192;BME280;22233;42.708;23.360;2022-09-28T03:58:15;94495.06;;;14.08;80.19
36192;BME280;22233;42.708;23.360;2022-09-28T04:00:41;94506.00;;;14.08;80.04
36192;BME280;22233;42.708;23.360;2022-09-28T04:03:06;94502.56;;;14.11;79.89
36192;BME280;22233;42.708;23.360;2022-09-28T04:05:32;94476.63;;;14.02;80.48
36192;BME280;22233;42.708;23.360;2022-09-28T04:07:58;94491.28;;;13.77;81.01
36192;BME280;22233;42.708;23.360;2022-09-28T04:10:24;94493.03;;;13.86;81.66
36192;BME280;22233;42.708;23.360;2022-09-28T04:12:53;94484.06;;;13.85;81.88
36192;BME280;22233;42.708;23.360;2022-09-28T04:15:18;94499.81;;;13.92;82.10
36192;BME280;22233;42.708;23.360;2022-09-28T04:17:44;94492.91;;;13.98;81.72
36192;BME280;22233;42.708;23.360;2022-09-28T04:20:09;94493.72;;;13.98;81.72
36192;BME280;22233;42.708;23.360;2022-09-28T04:22:35;94482.38;;;13.96;81.58
36192;BME280;22233;42.708;23.360;2022-09-28T04:25:02;94492.34;;;14.08;81.33
36192;BME280;22233;42.708;23.360;2022-09-28T04:27:28;94486.41;;;14.03;80.95
36192;BME280;22233;42.708;23.360;2022-09-28T04:30:12;94481.50;;;13.92;81.33
36192;BME280;22233;42.708;23.360;2022-09-28T04:32:37;94485.09;;;14.16;80.26
36192;BME280;22233;42.708;23.360;2022-09-28T04:35:03;94476.13;;;14.15;79.71
36192;BME280;22233;42.708;23.360;2022-09-28T04:37:28;94493.66;;;14.14;80.20
36192;BME280;22233;42.708;23.360;2022-09-28T04:39:55;94487.47;;;14.17;79.96
36192;BME280;22233;42.708;23.360;2022-09-28T04:42:21;94494.06;;;13.97;80.80
36192;BME280;22233;42.708;23.360;2022-09-28T04:44:46;94489.75;;;13.96;81.45
36192;BME280;22233;42.708;23.360;2022-09-28T04:47:11;94488.78;;;13.88;81.09
36192;BME280;22233;42.708;23.360;2022-09-28T04:49:37;94499.75;;;14.08;80.75
36192;BME280;22233;42.708;23.360;2022-09-28T04:52:03;94485.69;;;14.25;80.18
36192;BME280;22233;42.708;23.360;2022-09-28T04:54:29;94494.03;;;14.13;80.19
36192;BME280;22233;42.708;23.360;2022-09-28T04:56:54;94483.94;;;13.97;80.46
36192;BME280;22233;42.708;23.360;2022-09-28T04:59:20;94501.06;;;14.14;80.06
36192;BME280;22233;42.708;23.360;2022-09-28T05:01:45;94477.97;;;13.92;79.44
36192;BME280;22233;42.708;23.360;2022-09-28T05:04:11;94497.72;;;13.85;80.62
36192;BME280;22233;42.708;23.360;2022-09-28T05:06:37;94488.97;;;13.95;80.02
36192;BME280;22233;42.708;23.360;2022-09-28T05:09:02;94488.63;;;13.97;79.08
36192;BME280;22233;42.708;23.360;2022-09-28T05:11:28;94478.81;;;13.96;79.35
36192;BME280;22233;42.708;23.360;2022-09-28T05:13:53;94487.41;;;13.94;78.91
36192;BME280;22233;42.708;23.360;2022-09-28T05:16:19;94489.03;;;13.99;78.41
36192;BME280;22233;42.708;23.360;2022-09-28T05:18:44;94494.66;;;13.71;79.40
36192;BME280;22233;42.708;23.360;2022-09-28T05:21:13;94501.81;;;13.59;80.53
36192;BME280;22233;42.708;23.360;2022-09-28T05:23:42;94493.03;;;13.34;81.59
36192;BME280;22233;42.708;23.360;2022-09-28T05:26:09;94507.84;;;13.05;83.66
36192;BME280;22233;42.708;23.360;2022-09-28T05:28:35;94499.25;;;13.19;82.67
36192;BME280;22233;42.708;23.360;2022-09-28T05:31:02;94510.81;;;13.44;85.07
36192;BME280;22233;42.708;23.360;2022-09-28T05:33:28;94521.13;;;13.86;81.70
36192;BME280;22233;42.708;23.360;2022-09-28T05:35:55;94518.44;;;14.06;81.09
36192;BME280;22233;42.708;23.360;2022-09-28T05:38:21;94509.16;;;14.10;80.68
36192;BME280;22233;42.708;23.360;2022-09-28T05:40:46;94510.31;;;14.45;80.77
36192;BME280;22233;42.708;23.360;2022-09-28T05:43:11;94496.75;;;14.32;80.28
36192;BME280;22233;42.708;23.360;2022-09-28T05:45:37;94507.50;;;14.61;80.22
36192;BME280;22233;42.708;23.360;2022-09-28T05:48:02;94507.31;;;14.92;78.28
36192;BME280;22233;42.708;23.360;2022-09-28T05:50:28;94498.69;;;14.90;78.41
36192;BME280;22233;42.708;23.360;2022-09-28T05:53:01;94508.09;;;14.93;80.46
36192;BME280;22233;42.708;23.360;2022-09-28T05:55:27;94510.69;;;15.05;79.79
36192;BME280;22233;42.708;23.360;2022-09-28T05:57:56;94500.63;;;15.09;78.47
36192;BME280;22233;42.708;23.360;2022-09-28T06:00:22;94515.75;;;15.03;79.46
36192;BME280;22233;42.708;23.360;2022-09-28T06:02:58;94506.56;;;14.72;80.55
36192;BME280;22233;42.708;23.360;2022-09-28T06:05:25;94499.44;;;14.87;80.42
36192;BME280;22233;42.708;23.360;2022-09-28T06:07:53;94516.38;;;14.96;80.81
36192;BME280;22233;42.708;23.360;2022-09-28T06:10:19;94517.13;;;15.16;79.72
36192;BME280;22233;42.708;23.360;2022-09-28T06:12:44;94530.63;;;15.29;79.38
36192;BME280;22233;42.708;23.360;2022-09-28T06:15:12;94534.59;;;15.31;80.46
36192;BME280;22233;42.708;23.360;2022-09-28T06:17:38;94539.22;;;15.50;79.35
36192;BME280;22233;42.708;23.360;2022-09-28T06:20:04;94506.44;;;15.31;79.05
36192;BME280;22233;42.708;23.360;2022-09-28T06:22:29;94525.72;;;15.38;78.24
36192;BME280;22233;42.708;23.360;2022-09-28T06:24:55;94538.06;;;15.51;79.03
36192;BME280;22233;42.708;23.360;2022-09-28T06:27:20;94546.75;;;15.57;78.29
36192;BME280;22233;42.708;23.360;2022-09-28T06:29:45;94503.28;;;15.29;78.47
36192;BME280;22233;42.708;23.360;2022-09-28T06:32:11;94536.34;;;15.43;78.11
36192;BME280;22233;42.708;23.360;2022-09-28T06:34:38;94535.44;;;15.12;79.23
36192;BME280;22233;42.708;23.360;2022-09-28T06:37:03;94533.53;;;14.93;79.48
36192;BME280;22233;42.708;23.360;2022-09-28T06:39:29;94525.41;;;14.97;79.27
36192;BME280;22233;42.708;23.360;2022-09-28T06:41:55;94529.59;;;15.14;79.38
36192;BME280;22233;42.708;23.360;2022-09-28T06:44:20;94544.03;;;15.34;78.84
36192;BME280;22233;42.708;23.360;2022-09-28T06:46:45;94525.28;;;15.36;78.39
36192;BME280;22233;42.708;23.360;2022-09-28T06:49:11;94537.06;;;15.63;77.53
36192;BME280;22233;42.708;23.360;2022-09-28T06:51:36;94528.19;;;15.47;78.76
36192;BME280;22233;42.708;23.360;2022-09-28T06:54:02;94537.47;;;15.62;76.67
36192;BME280;22233;42.708;23.360;2022-09-28T06:56:27;94529.66;;;15.64;76.96
36192;BME280;22233;42.708;23.360;2022-09-28T06:58:52;94538.44;;;16.00;76.53
36192;BME280;22233;42.708;23.360;2022-09-28T07:01:18;94521.50;;;15.90;76.37
36192;BME280;22233;42.708;23.360;2022-09-28T07:03:44;94519.44;;;15.84;77.03
36192;BME280;22233;42.708;23.360;2022-09-28T07:06:10;94525.59;;;15.77;77.23
36192;BME280;22233;42.708;23.360;2022-09-28T07:08:36;94539.19;;;15.96;77.25
36192;BME280;22233;42.708;23.360;2022-09-28T07:11:05;94538.50;;;16.03;77.12
36192;BME280;22233;42.708;23.360;2022-09-28T07:13:31;94536.19;;;16.05;77.23
36192;BME280;22233;42.708;23.360;2022-09-28T07:15:57;94531.88;;;15.31;78.50
36192;BME280;22233;42.708;23.360;2022-09-28T07:18:26;94544.88;;;15.84;78.60
36192;BME280;22233;42.708;23.360;2022-09-28T07:20:54;94563.47;;;16.25;77.48
36192;BME280;22233;42.708;23.360;2022-09-28T07:23:21;94560.44;;;16.30;76.56
36192;BME280;22233;42.708;23.360;2022-09-28T07:25:47;94565.41;;;16.51;75.65
36192;BME280;22233;42.708;23.360;2022-09-28T07:28:15;94561.28;;;16.64;75.14
36192;BME280;22233;42.708;23.360;2022-09-28T07:30:41;94540.59;;;16.70;74.56
36192;BME280;22233;42.708;23.360;2022-09-28T07:33:10;94555.53;;;16.76;75.30
36192;BME280;22233;42.708;23.360;2022-09-28T07:35:37;94555.16;;;17.08;75.23
36192;BME280;22233;42.708;23.360;2022-09-28T07:38:06;94556.28;;;17.41;73.64
36192;BME280;22233;42.708;23.360;2022-09-28T07:40:33;94553.97;;;17.09;72.88
36192;BME280;22233;42.708;23.360;2022-09-28T07:43:18;94551.31;;;17.16;73.32
36192;BME280;22233;42.708;23.360;2022-09-28T07:45:51;94558.53;;;17.32;73.81
36192;BME280;22233;42.708;23.360;2022-09-28T07:48:18;94552.88;;;17.55;72.92
36192;BME280;22233;42.708;23.360;2022-09-28T07:50:51;94541.59;;;17.26;72.79
36192;BME280;22233;42.708;23.360;2022-09-28T07:53:20;94555.81;;;17.35;73.88
36192;BME280;22233;42.708;23.360;2022-09-28T07:55:54;94552.47;;;17.56;73.49
36192;BME280;22233;42.708;23.360;2022-09-28T07:58:20;94557.13;;;17.49;74.08
36192;BME280;22233;42.708;23.360;2022-09-28T08:00:47;94560.91;;;17.33;74.33
36192;BME280;22233;42.708;23.360;2022-09-28T08:03:18;94551.22;;;17.47;73.82
36192;BME280;22233;42.708;23.360;2022-09-28T08:05:44;94550.00;;;17.44;74.37
36192;BME280;22233;42.708;23.360;2022-09-28T08:08:11;94562.38;;;17.65;75.30
36192;BME280;22233;42.708;23.360;2022-09-28T08:10:36;94549.09;;;17.74;73.69
36192;BME280;22233;42.708;23.360;2022-09-28T08:13:02;94549.34;;;18.03;73.25
36192;BME280;22233;42.708;23.360;2022-09-28T08:15:30;94554.53;;;18.11;70.82
36192;BME280;22233;42.708;23.360;2022-09-28T08:18:00;94549.50;;;18.24;71.15
36192;BME280;22233;42.708;23.360;2022-09-28T08:20:25;94547.63;;;18.43;69.67
36192;BME280;22233;42.708;23.360;2022-09-28T08:23:09;94533.22;;;18.64;69.60
36192;BME280;22233;42.708;23.360;2022-09-28T08:25:35;94543.94;;;18.80;68.98
36192;BME280;22233;42.708;23.360;2022-09-28T08:28:02;94541.19;;;18.87;67.75
36192;BME280;22233;42.708;23.360;2022-09-28T08:30:27;94547.16;;;19.00;67.60
36192;BME280;22233;42.708;23.360;2022-09-28T08:32:52;94547.09;;;18.89;67.75
36192;BME280;22233;42.708;23.360;2022-09-28T08:35:18;94545.56;;;18.95;66.63
36192;BME280;22233;42.708;23.360;2022-09-28T08:37:49;94549.09;;;18.99;66.33
36192;BME280;22233;42.708;23.360;2022-09-28T08:40:19;94561.78;;;19.22;65.77
36192;BME280;22233;42.708;23.360;2022-09-28T08:42:49;94544.13;;;19.48;63.57
36192;BME280;22233;42.708;23.360;2022-09-28T08:45:23;94553.22;;;19.77;64.21
36192;BME280;22233;42.708;23.360;2022-09-28T08:47:54;94563.06;;;20.00;65.04
36192;BME280;22233;42.708;23.360;2022-09-28T08:51:02;94551.25;;;19.85;63.65
36192;BME280;22233;42.708;23.360;2022-09-28T08:53:40;94545.34;;;19.93;64.33
36192;BME280;22233;42.708;23.360;2022-09-28T08:56:14;94535.50;;;20.00;63.41
36192;BME280;22233;42.708;23.360;2022-09-28T08:58:44;94543.34;;;20.30;62.93
36192;BME280;22233;42.708;23.360;2022-09-28T09:01:16;94541.38;;;20.20;61.80
36192;BME280;22233;42.708;23.360;2022-09-28T09:03:43;94540.19;;;20.31;62.16
36192;BME280;22233;42.708;23.360;2022-09-28T09:06:33;94534.66;;;20.49;63.65
36192;BME280;22233;42.708;23.360;2022-09-28T09:19:53;94543.25;;;20.80;60.00
36192;BME280;22233;42.708;23.360;2022-09-28T09:22:38;94535.25;;;21.04;61.60
36192;BME280;22233;42.708;23.360;2022-09-28T09:30:20;94521.34;;;21.25;59.95
36192;BME280;22233;42.708;23.360;2022-09-28T09:41:24;94525.22;;;21.94;57.02
36192;BME280;22233;42.708;23.360;2022-09-28T09:47:08;94500.56;;;22.14;56.51
36192;BME280;22233;42.708;23.360;2022-09-28T09:49:37;94519.13;;;22.18;58.05
36192;BME280;22233;42.708;23.360;2022-09-28T09:52:33;94505.28;;;22.18;56.23
36192;BME280;22233;42.708;23.360;2022-09-28T09:57:47;94508.03;;;22.59;56.49
36192;BME280;22233;42.708;23.360;2022-09-28T10:00:16;94500.41;;;22.70;57.94
36192;BME280;22233;42.708;23.360;2022-09-28T10:02:44;94509.44;;;22.74;55.78
36192;BME280;22233;42.708;23.360;2022-09-28T10:07:48;94508.22;;;23.10;56.06
36192;BME280;22233;42.708;23.360;2022-09-28T10:10:27;94505.84;;;22.78;55.42
36192;BME280;22233;42.708;23.360;2022-09-28T10:12:54;94508.16;;;23.17;52.70
36192;BME280;22233;42.708;23.360;2022-09-28T10:15:40;94506.44;;;23.27;54.01
36192;BME280;22233;42.708;23.360;2022-09-28T10:18:11;94491.94;;;23.16;52.93
36192;BME280;22233;42.708;23.360;2022-09-28T10:20:38;94495.88;;;23.45;51.39
36192;BME280;22233;42.708;23.360;2022-09-28T10:23:11;94487.81;;;23.55;48.95
36192;BME280;22233;42.708;23.360;2022-09-28T10:25:40;94469.94;;;23.59;48.51
36192;BME280;22233;42.708;23.360;2022-09-28T10:28:10;94483.41;;;23.84;48.00
36192;BME280;22233;42.708;23.360;2022-09-28T10:30:40;94486.69;;;24.03;48.71
36192;BME280;22233;42.708;23.360;2022-09-28T10:33:29;94485.66;;;24.17;46.89
36192;BME280;22233;42.708;23.360;2022-09-28T10:35:55;94467.56;;;23.58;47.00
36192;BME280;22233;42.708;23.360;2022-09-28T10:38:22;94457.69;;;23.57;46.09
36192;BME280;22233;42.708;23.360;2022-09-28T10:40:51;94471.47;;;23.87;46.74
36192;BME280;22233;42.708;23.360;2022-09-28T10:43:30;94469.53;;;24.31;46.29
36192;BME280;22233;42.708;23.360;2022-09-28T10:48:59;94457.78;;;24.44;47.53
36192;BME280;22233;42.708;23.360;2022-09-28T10:51:49;94461.59;;;24.74;47.16
36192;BME280;22233;42.708;23.360;2022-09-28T10:56:43;94452.00;;;25.15;45.82
36192;BME280;22233;42.708;23.360;2022-09-28T11:04:41;94439.75;;;25.81;42.94
36192;BME280;22233;42.708;23.360;2022-09-28T11:07:19;94430.53;;;26.01;41.67
36192;BME280;22233;42.708;23.360;2022-09-28T11:09:46;94423.69;;;25.40;41.19
36192;BME280;22233;42.708;23.360;2022-09-28T11:12:19;94413.94;;;25.48;39.89
36192;BME280;22233;42.708;23.360;2022-09-28T11:14:46;94426.19;;;25.83;39.49
36192;BME280;22233;42.708;23.360;2022-09-28T11:17:36;94427.09;;;25.47;41.99
36192;BME280;22233;42.708;23.360;2022-09-28T11:23:25;94409.34;;;25.74;40.01
36192;BME280;22233;42.708;23.360;2022-09-28T11:26:14;94416.31;;;26.28;41.62
36192;BME280;22233;42.708;23.360;2022-09-28T11:28:39;94394.53;;;26.39;38.51
36192;BME280;22233;42.708;23.360;2022-09-28T11:31:07;94412.38;;;26.84;40.54
36192;BME280;22233;42.708;23.360;2022-09-28T11:33:45;94400.69;;;27.02;39.21
36192;BME280;22233;42.708;23.360;2022-09-28T11:38:39;94395.56;;;26.75;39.37
36192;BME280;22233;42.708;23.360;2022-09-28T11:46:24;94396.16;;;27.21;37.95
36192;BME280;22233;42.708;23.360;2022-09-28T11:49:01;94394.25;;;27.30;35.58
36192;BME280;22233;42.708;23.360;2022-09-28T11:51:30;94382.53;;;26.97;36.32
36192;BME280;22233;42.708;23.360;2022-09-28T11:54:11;94398.19;;;27.33;37.41
36192;BME280;22233;42.708;23.360;2022-09-28T11:56:46;94389.66;;;26.98;37.36
36192;BME280;22233;42.708;23.360;2022-09-28T11:59:23;94397.50;;;26.61;37.47
36192;BME280;22233;42.708;23.360;2022-09-28T12:01:52;94401.66;;;26.69;36.86
36192;BME280;22233;42.708;23.360;2022-09-28T12:04:33;94385.72;;;26.28;37.47
36192;BME280;22233;42.708;23.360;2022-09-28T12:07:26;94392.44;;;25.98;38.52
36192;BME280;22233;42.708;23.360;2022-09-28T12:12:49;94371.19;;;25.91;39.00
36192;BME280;22233;42.708;23.360;2022-09-28T12:15:23;94384.66;;;26.51;37.28
36192;BME280;22233;42.708;23.360;2022-09-28T12:18:06;94389.66;;;26.98;36.96
36192;BME280;22233;42.708;23.360;2022-09-28T12:20:44;94381.81;;;26.67;37.31
36192;BME280;22233;42.708;23.360;2022-09-28T12:23:17;94379.13;;;26.64;38.37
36192;BME280;22233;42.708;23.360;2022-09-28T12:25:53;94369.94;;;26.93;38.27
36192;BME280;22233;42.708;23.360;2022-09-28T12:28:38;94373.59;;;26.89;38.53
36192;BME280;22233;42.708;23.360;2022-09-28T12:31:15;94374.41;;;27.03;36.18
36192;BME280;22233;42.708;23.360;2022-09-28T12:33:47;94384.13;;;27.24;36.62
36192;BME280;22233;42.708;23.360;2022-09-28T12:50:00;94387.56;;;26.18;37.90
36192;BME280;22233;42.708;23.360;2022-09-28T12:57:58;94369.78;;;26.28;38.45
36192;BME280;22233;42.708;23.360;2022-09-28T13:09:15;94388.88;;;26.43;40.44
36192;BME280;22233;42.708;23.360;2022-09-28T13:17:12;94378.03;;;26.03;38.91
36192;BME280;22233;42.708;23.360;2022-09-28T13:22:37;94370.84;;;25.56;38.94
36192;BME280;22233;42.708;23.360;2022-09-28T13:25:13;94377.38;;;25.49;38.47
36192;BME280;22233;42.708;23.360;2022-09-28T13:27:45;94381.34;;;25.65;39.51
36192;BME280;22233;42.708;23.360;2022-09-28T13:30:13;94392.31;;;25.56;38.13
36192;BME280;22233;42.708;23.360;2022-09-28T13:32:42;94386.22;;;25.61;38.05
36192;BME280;22233;42.708;23.360;2022-09-28T13:35:17;94396.22;;;25.42;39.16
36192;BME280;22233;42.708;23.360;2022-09-28T13:37:46;94384.44;;;25.01;40.37
36192;BME280;22233;42.708;23.360;2022-09-28T13:40:12;94394.91;;;25.30;39.54
36192;BME280;22233;42.708;23.360;2022-09-28T13:51:17;94385.66;;;26.44;37.91
36192;BME280;22233;42.708;23.360;2022-09-28T13:59:13;94374.38;;;26.06;37.94
36192;BME280;22233;42.708;23.360;2022-09-28T14:04:24;94375.81;;;25.32;38.94
36192;BME280;22233;42.708;23.360;2022-09-28T14:07:19;94380.31;;;25.42;39.06
36192;BME280;22233;42.708;23.360;2022-09-28T14:12:45;94374.16;;;25.35;38.68
36192;BME280;22233;42.708;23.360;2022-09-28T14:18:15;94368.66;;;25.31;39.46
36192;BME280;22233;42.708;23.360;2022-09-28T14:29:06;94355.59;;;25.77;38.90
36192;BME280;22233;42.708;23.360;2022-09-28T14:31:39;94370.91;;;25.69;39.37
36192;BME280;22233;42.708;23.360;2022-09-28T14:34:22;94366.59;;;25.68;38.66
36192;BME280;22233;42.708;23.360;2022-09-28T14:36:49;94358.09;;;25.42;39.55
36192;BME280;22233;42.708;23.360;2022-09-28T14:39:35;94367.63;;;25.41;38.69
36192;BME280;22233;42.708;23.360;2022-09-28T14:42:24;94366.13;;;25.04;39.61
36192;BME280;22233;42.708;23.360;2022-09-28T14:47:43;94363.31;;;25.40;38.71
36192;BME280;22233;42.708;23.360;2022-09-28T14:52:53;94366.94;;;25.37;38.84
36192;BME280;22233;42.708;23.360;2022-09-28T14:55:26;94370.44;;;25.58;38.43
36192;BME280;22233;42.708;23.360;2022-09-28T14:57:57;94362.06;;;25.74;37.86
36192;BME280;22233;42.708;23.360;2022-09-28T15:00:25;94372.25;;;25.64;37.73
36192;BME280;22233;42.708;23.360;2022-09-28T15:02:58;94359.63;;;25.43;38.07
36192;BME280;22233;42.708;23.360;2022-09-28T15:05:30;94374.16;;;25.51;38.23
36192;BME280;22233;42.708;23.360;2022-09-28T15:07:56;94350.59;;;25.39;38.92
36192;BME280;22233;42.708;23.360;2022-09-28T15:10:32;94366.91;;;25.21;38.39
36192;BME280;22233;42.708;23.360;2022-09-28T15:13:19;94353.72;;;25.41;38.06
36192;BME280;22233;42.708;23.360;2022-09-28T15:15:49;94366.94;;;25.37;38.20
36192;BME280;22233;42.708;23.360;2022-09-28T15:18:37;94347.47;;;25.37;38.63
36192;BME280;22233;42.708;23.360;2022-09-28T15:21:09;94374.69;;;25.29;38.78
36192;BME280;22233;42.708;23.360;2022-09-28T15:23:40;94377.56;;;24.89;39.01
36192;BME280;22233;42.708;23.360;2022-09-28T15:26:20;94378.75;;;24.88;39.54
36192;BME280;22233;42.708;23.360;2022-09-28T15:28:46;94384.34;;;25.05;39.35
36192;BME280;22233;42.708;23.360;2022-09-28T15:31:18;94377.78;;;24.79;39.82
36192;BME280;22233;42.708;23.360;2022-09-28T15:33:44;94382.63;;;24.75;39.93
36192;BME280;22233;42.708;23.360;2022-09-28T15:36:30;94380.19;;;24.77;39.56
36192;BME280;22233;42.708;23.360;2022-09-28T15:41:26;94384.34;;;25.05;40.10
36192;BME280;22233;42.708;23.360;2022-09-28T15:46:38;94378.09;;;24.64;41.12
36192;BME280;22233;42.708;23.360;2022-09-28T15:49:07;94398.47;;;24.58;41.15